This is the latest recevied weather packets stored in our database for station/object K6QM-1. If no packets are shown the sender has not sent any weather packets the latest 1 day(s).
| Time | Temp. | Humidity | Pressure | Rain* | Wind** | Luminosity | Snow |
|---|---|---|---|---|---|---|---|
| 1777883146 | 16.11° C | 62% | 1017.1 hPa | - | - | - | - |
| 1777882246 | 16.11° C | 62% | 1017.5 hPa | - | - | - | - |
| 1777881346 | 16.11° C | 62% | 1017.6 hPa | - | - | - | - |
| 1777879546 | 16.67° C | 63% | 1018 hPa | - | - | - | - |
| 1777878646 | 16.67° C | 63% | 1017.8 hPa | - | - | - | - |
| 1777877746 | 16.67° C | 62% | 1017.9 hPa | - | - | - | - |
| 1777875946 | 17.22° C | 58% | 1017.7 hPa | - | - | - | - |
| 1777875046 | 17.22° C | 58% | 1017.1 hPa | - | - | - | - |
| 1777874146 | 17.22° C | 57% | 1017.2 hPa | - | - | - | - |
| 1777873245 | 17.22° C | 57% | 1016.8 hPa | - | - | - | - |
| 1777872345 | 17.22° C | 58% | 1016.9 hPa | - | - | - | - |
| 1777871445 | 17.22° C | 58% | 1016.9 hPa | - | - | - | - |
| 1777870545 | 17.22° C | 58% | 1017.1 hPa | - | - | - | - |
| 1777869645 | 17.78° C | 57% | 1017.1 hPa | - | - | - | - |
| 1777868745 | 17.78° C | 55% | 1017 hPa | - | - | - | - |
| 1777867845 | 16.67° C | 57% | 1015 hPa | - | - | - | - |
| 1777866945 | 17.78° C | 57% | 1016.4 hPa | - | - | - | - |
| 1777866046 | 16.11° C | 54% | 1013.6 hPa | - | - | - | - |
| 1777865145 | 18.33° C | 52% | 1016.6 hPa | - | - | - | - |
| 1777864245 | 18.89° C | 50% | 1016.5 hPa | - | - | - | - |
| 1777863345 | 18.33° C | 50% | 1016.4 hPa | - | - | - | - |
| 1777862445 | 19.44° C | 48% | 1016.2 hPa | - | - | - | - |
| 1777861544 | 19.44° C | 48% | 1016.2 hPa | - | - | - | - |
| 1777860644 | 20° C | 48% | 1016.3 hPa | - | - | - | - |
| 1777859744 | 21.11° C | 45% | 1016.1 hPa | - | - | - | - |
* Rain since midnight (hover to see other rain measurements)
** Current wind speed in m/s (hover to see current wind gust speed)